Terminal Aerodrome Forecast
Issued by NWS

Home | Current Version | Previous Version | Text Only | Print | Product List | Glossary On
Versions: 1 2 3 4 5 6 7 8 9 10 11 12 13 14 15 16 17 18
000
FTUS42 KGSP 061411 AAA
TAFHKY
TAF AMD
KHKY 061411Z 0614/0712 06009KT 4SM -RA BR OVC004
      TEMPO 0614/0617 2SM -RA BR SCT004 OVC007
     FM061700 04005KT 3SM BR OVC010
     FM062100 VRB02KT 3SM BR BKN015
     FM070500 29003KT 1SM BR SCT050=

USA.gov is the U.S. government's official web portal to all federal, state and local government web resources and services.